sensor_id;sensor_type;location;lat;lon;timestamp;temperature;humidity
11107;DHT22;5607;48.302;14.294;2023-09-19T00:02:37;19.20;6.50
11107;DHT22;5607;48.302;14.294;2023-09-19T00:05:25;19.10;11.40
11107;DHT22;5607;48.302;14.294;2023-09-19T00:08:13;19.00;18.00
11107;DHT22;5607;48.302;14.294;2023-09-19T00:11:00;19.10;33.20
11107;DHT22;5607;48.302;14.294;2023-09-19T00:13:51;19.10;29.30
11107;DHT22;5607;48.302;14.294;2023-09-19T00:16:38;19.10;10.50
11107;DHT22;5607;48.302;14.294;2023-09-19T00:19:24;19.10;20.90
11107;DHT22;5607;48.302;14.294;2023-09-19T00:22:10;19.10;23.70
11107;DHT22;5607;48.302;14.294;2023-09-19T00:24:59;19.20;23.40
11107;DHT22;5607;48.302;14.294;2023-09-19T00:27:46;19.20;24.00
11107;DHT22;5607;48.302;14.294;2023-09-19T00:30:37;19.10;1.50
11107;DHT22;5607;48.302;14.294;2023-09-19T00:33:24;19.00;28.50
11107;DHT22;5607;48.302;14.294;2023-09-19T00:36:10;19.00;34.10
11107;DHT22;5607;48.302;14.294;2023-09-19T00:38:56;19.00;34.50
11107;DHT22;5607;48.302;14.294;2023-09-19T00:41:43;19.10;41.40
11107;DHT22;5607;48.302;14.294;2023-09-19T00:44:30;19.20;35.60
11107;DHT22;5607;48.302;14.294;2023-09-19T00:47:17;19.10;11.40
11107;DHT22;5607;48.302;14.294;2023-09-19T00:50:04;19.20;14.70
11107;DHT22;5607;48.302;14.294;2023-09-19T00:52:54;19.20;16.50
11107;DHT22;5607;48.302;14.294;2023-09-19T00:55:44;19.00;1.00
11107;DHT22;5607;48.302;14.294;2023-09-19T00:58:31;18.90;8.40
11107;DHT22;5607;48.302;14.294;2023-09-19T01:01:19;18.90;6.00
11107;DHT22;5607;48.302;14.294;2023-09-19T01:04:06;18.90;13.20
11107;DHT22;5607;48.302;14.294;2023-09-19T01:06:53;19.00;11.20
11107;DHT22;5607;48.302;14.294;2023-09-19T01:09:39;19.00;16.60
11107;DHT22;5607;48.302;14.294;2023-09-19T01:12:30;19.10;9.20
11107;DHT22;5607;48.302;14.294;2023-09-19T01:18:43;19.20;1.00
11107;DHT22;5607;48.302;14.294;2023-09-19T01:21:49;19.30;1.00
11107;DHT22;5607;48.302;14.294;2023-09-19T01:30:47;19.30;1.00
11107;DHT22;5607;48.302;14.294;2023-09-19T01:36:45;19.20;1.00
11107;DHT22;5607;48.302;14.294;2023-09-19T01:39:31;19.10;1.00
11107;DHT22;5607;48.302;14.294;2023-09-19T01:51:14;19.10;29.80
11107;DHT22;5607;48.302;14.294;2023-09-19T01:54:11;19.10;40.40
11107;DHT22;5607;48.302;14.294;2023-09-19T01:57:14;19.10;22.30
11107;DHT22;5607;48.302;14.294;2023-09-19T02:00:03;19.10;37.70
11107;DHT22;5607;48.302;14.294;2023-09-19T02:02:52;19.20;33.70
11107;DHT22;5607;48.302;14.294;2023-09-19T02:05:40;19.20;2.50
11107;DHT22;5607;48.302;14.294;2023-09-19T02:08:26;19.20;8.10
11107;DHT22;5607;48.302;14.294;2023-09-19T02:11:12;19.20;13.40
11107;DHT22;5607;48.302;14.294;2023-09-19T02:13:59;19.10;15.90
11107;DHT22;5607;48.302;14.294;2023-09-19T02:16:45;19.20;18.50
11107;DHT22;5607;48.302;14.294;2023-09-19T02:19:31;19.10;3.30
11107;DHT22;5607;48.302;14.294;2023-09-19T02:22:19;19.20;1.40
11107;DHT22;5607;48.302;14.294;2023-09-19T02:25:06;19.10;6.30
11107;DHT22;5607;48.302;14.294;2023-09-19T02:27:53;19.00;5.50
11107;DHT22;5607;48.302;14.294;2023-09-19T02:30:40;19.00;12.70
11107;DHT22;5607;48.302;14.294;2023-09-19T02:33:26;19.00;21.60
11107;DHT22;5607;48.302;14.294;2023-09-19T02:36:12;19.00;34.50
11107;DHT22;5607;48.302;14.294;2023-09-19T02:39:03;19.00;23.50
11107;DHT22;5607;48.302;14.294;2023-09-19T02:41:51;19.00;32.80
11107;DHT22;5607;48.302;14.294;2023-09-19T02:44:38;19.00;34.00
11107;DHT22;5607;48.302;14.294;2023-09-19T02:47:24;18.90;16.30
11107;DHT22;5607;48.302;14.294;2023-09-19T02:50:11;18.80;12.40
11107;DHT22;5607;48.302;14.294;2023-09-19T02:52:57;18.80;20.90
11107;DHT22;5607;48.302;14.294;2023-09-19T02:55:43;18.80;11.00
11107;DHT22;5607;48.302;14.294;2023-09-19T02:58:30;18.90;8.40
11107;DHT22;5607;48.302;14.294;2023-09-19T03:01:16;18.90;1.70
11107;DHT22;5607;48.302;14.294;2023-09-19T03:04:04;18.90;1.00
11107;DHT22;5607;48.302;14.294;2023-09-19T03:06:52;18.90;5.80
11107;DHT22;5607;48.302;14.294;2023-09-19T03:09:39;18.90;2.40
11107;DHT22;5607;48.302;14.294;2023-09-19T03:12:26;18.80;5.80
11107;DHT22;5607;48.302;14.294;2023-09-19T03:15:13;18.70;2.50
11107;DHT22;5607;48.302;14.294;2023-09-19T03:18:01;18.70;6.10
11107;DHT22;5607;48.302;14.294;2023-09-19T03:20:53;18.60;4.60
11107;DHT22;5607;48.302;14.294;2023-09-19T03:23:41;18.50;5.00
11107;DHT22;5607;48.302;14.294;2023-09-19T03:26:27;18.50;7.00
11107;DHT22;5607;48.302;14.294;2023-09-19T03:29:13;18.60;11.90
11107;DHT22;5607;48.302;14.294;2023-09-19T03:32:00;18.70;11.20
11107;DHT22;5607;48.302;14.294;2023-09-19T03:34:46;18.70;1.70
11107;DHT22;5607;48.302;14.294;2023-09-19T03:37:34;18.70;1.00
11107;DHT22;5607;48.302;14.294;2023-09-19T03:40:20;18.70;1.00
11107;DHT22;5607;48.302;14.294;2023-09-19T03:43:07;18.70;1.00
11107;DHT22;5607;48.302;14.294;2023-09-19T03:45:53;18.70;1.00
11107;DHT22;5607;48.302;14.294;2023-09-19T03:48:43;18.70;6.70
11107;DHT22;5607;48.302;14.294;2023-09-19T03:51:29;18.60;1.00
11107;DHT22;5607;48.302;14.294;2023-09-19T03:54:16;18.40;4.50
11107;DHT22;5607;48.302;14.294;2023-09-19T03:57:05;18.40;17.80
11107;DHT22;5607;48.302;14.294;2023-09-19T03:59:51;18.50;26.00
11107;DHT22;5607;48.302;14.294;2023-09-19T04:02:39;18.40;10.20
11107;DHT22;5607;48.302;14.294;2023-09-19T04:05:25;18.30;21.90
11107;DHT22;5607;48.302;14.294;2023-09-19T04:08:12;18.30;30.10
11107;DHT22;5607;48.302;14.294;2023-09-19T04:11:01;18.30;26.30
11107;DHT22;5607;48.302;14.294;2023-09-19T04:13:47;18.30;36.00
11107;DHT22;5607;48.302;14.294;2023-09-19T04:16:35;18.40;32.40
11107;DHT22;5607;48.302;14.294;2023-09-19T04:19:21;18.40;25.70
11107;DHT22;5607;48.302;14.294;2023-09-19T04:22:07;18.30;18.60
11107;DHT22;5607;48.302;14.294;2023-09-19T04:24:55;18.30;5.00
11107;DHT22;5607;48.302;14.294;2023-09-19T04:27:41;18.30;19.40
11107;DHT22;5607;48.302;14.294;2023-09-19T04:30:27;18.40;12.80
11107;DHT22;5607;48.302;14.294;2023-09-19T04:33:14;18.40;4.90
11107;DHT22;5607;48.302;14.294;2023-09-19T04:36:00;18.50;10.00
11107;DHT22;5607;48.302;14.294;2023-09-19T04:38:46;18.60;2.20
11107;DHT22;5607;48.302;14.294;2023-09-19T04:41:33;18.70;1.00
11107;DHT22;5607;48.302;14.294;2023-09-19T04:44:20;18.60;1.00
11107;DHT22;5607;48.302;14.294;2023-09-19T04:47:07;18.50;1.00
11107;DHT22;5607;48.302;14.294;2023-09-19T04:49:54;18.50;1.00
11107;DHT22;5607;48.302;14.294;2023-09-19T04:52:40;18.60;1.00
11107;DHT22;5607;48.302;14.294;2023-09-19T04:55:29;18.50;1.00
11107;DHT22;5607;48.302;14.294;2023-09-19T04:58:16;18.50;1.00
11107;DHT22;5607;48.302;14.294;2023-09-19T05:01:03;18.40;1.00
11107;DHT22;5607;48.302;14.294;2023-09-19T05:03:50;18.50;3.80
11107;DHT22;5607;48.302;14.294;2023-09-19T05:06:39;18.50;8.60
11107;DHT22;5607;48.302;14.294;2023-09-19T05:09:25;18.50;7.30
11107;DHT22;5607;48.302;14.294;2023-09-19T05:12:11;18.50;12.90
11107;DHT22;5607;48.302;14.294;2023-09-19T05:14:58;18.50;16.20
11107;DHT22;5607;48.302;14.294;2023-09-19T05:17:48;18.50;13.50
11107;DHT22;5607;48.302;14.294;2023-09-19T05:20:35;18.70;15.20
11107;DHT22;5607;48.302;14.294;2023-09-19T05:23:23;18.70;11.00
11107;DHT22;5607;48.302;14.294;2023-09-19T05:26:10;18.70;1.00
11107;DHT22;5607;48.302;14.294;2023-09-19T05:28:57;18.70;1.00
11107;DHT22;5607;48.302;14.294;2023-09-19T05:31:44;18.70;1.00
11107;DHT22;5607;48.302;14.294;2023-09-19T05:34:30;18.70;1.00
11107;DHT22;5607;48.302;14.294;2023-09-19T05:37:18;18.70;1.00
11107;DHT22;5607;48.302;14.294;2023-09-19T05:40:04;18.70;1.00
11107;DHT22;5607;48.302;14.294;2023-09-19T05:42:58;18.80;1.00
11107;DHT22;5607;48.302;14.294;2023-09-19T05:45:44;18.90;1.00
11107;DHT22;5607;48.302;14.294;2023-09-19T05:48:31;18.90;1.00
11107;DHT22;5607;48.302;14.294;2023-09-19T05:51:17;18.90;1.00
11107;DHT22;5607;48.302;14.294;2023-09-19T05:54:04;18.90;1.00
11107;DHT22;5607;48.302;14.294;2023-09-19T05:56:51;19.00;1.00
11107;DHT22;5607;48.302;14.294;2023-09-19T05:59:39;19.10;1.00
11107;DHT22;5607;48.302;14.294;2023-09-19T06:02:26;19.10;1.00
11107;DHT22;5607;48.302;14.294;2023-09-19T06:05:16;18.90;1.00
11107;DHT22;5607;48.302;14.294;2023-09-19T06:08:02;19.00;1.00
11107;DHT22;5607;48.302;14.294;2023-09-19T06:10:53;19.10;1.00
11107;DHT22;5607;48.302;14.294;2023-09-19T06:13:40;19.10;1.00
11107;DHT22;5607;48.302;14.294;2023-09-19T06:16:26;19.20;1.00
11107;DHT22;5607;48.302;14.294;2023-09-19T06:19:12;19.10;1.00
11107;DHT22;5607;48.302;14.294;2023-09-19T06:21:58;19.10;1.00
11107;DHT22;5607;48.302;14.294;2023-09-19T06:24:45;18.80;1.00
11107;DHT22;5607;48.302;14.294;2023-09-19T06:27:33;18.70;1.00
11107;DHT22;5607;48.302;14.294;2023-09-19T06:30:22;18.80;1.00
11107;DHT22;5607;48.302;14.294;2023-09-19T06:33:10;18.90;1.00
11107;DHT22;5607;48.302;14.294;2023-09-19T06:35:59;18.80;1.00
11107;DHT22;5607;48.302;14.294;2023-09-19T06:38:46;18.90;1.00
11107;DHT22;5607;48.302;14.294;2023-09-19T06:41:33;18.90;1.00
11107;DHT22;5607;48.302;14.294;2023-09-19T06:44:19;19.10;1.00
11107;DHT22;5607;48.302;14.294;2023-09-19T06:47:07;19.30;1.00
11107;DHT22;5607;48.302;14.294;2023-09-19T06:49:54;19.50;1.00
11107;DHT22;5607;48.302;14.294;2023-09-19T06:52:40;19.60;1.00
11107;DHT22;5607;48.302;14.294;2023-09-19T06:55:27;19.50;1.00
11107;DHT22;5607;48.302;14.294;2023-09-19T06:58:13;19.50;1.00
11107;DHT22;5607;48.302;14.294;2023-09-19T07:01:03;19.50;1.00
11107;DHT22;5607;48.302;14.294;2023-09-19T07:03:49;19.70;1.00
11107;DHT22;5607;48.302;14.294;2023-09-19T07:06:36;19.90;1.00
11107;DHT22;5607;48.302;14.294;2023-09-19T07:09:23;20.10;1.00
11107;DHT22;5607;48.302;14.294;2023-09-19T07:12:13;20.50;1.00
11107;DHT22;5607;48.302;14.294;2023-09-19T07:15:00;20.80;99.90
11107;DHT22;5607;48.302;14.294;2023-09-19T07:17:46;20.80;99.90
11107;DHT22;5607;48.302;14.294;2023-09-19T07:20:32;20.50;99.90
11107;DHT22;5607;48.302;14.294;2023-09-19T07:23:21;20.20;99.90
11107;DHT22;5607;48.302;14.294;2023-09-19T07:26:08;20.30;99.90
11107;DHT22;5607;48.302;14.294;2023-09-19T07:28:55;20.10;99.90
11107;DHT22;5607;48.302;14.294;2023-09-19T07:31:42;20.10;99.90
11107;DHT22;5607;48.302;14.294;2023-09-19T07:34:30;20.00;99.90
11107;DHT22;5607;48.302;14.294;2023-09-19T07:37:16;20.00;99.90
11107;DHT22;5607;48.302;14.294;2023-09-19T07:40:03;20.10;99.90
11107;DHT22;5607;48.302;14.294;2023-09-19T07:42:59;20.10;99.90
11107;DHT22;5607;48.302;14.294;2023-09-19T07:45:49;20.10;99.90
11107;DHT22;5607;48.302;14.294;2023-09-19T07:48:35;20.20;99.90
11107;DHT22;5607;48.302;14.294;2023-09-19T07:51:22;20.40;99.90
11107;DHT22;5607;48.302;14.294;2023-09-19T07:54:08;20.50;99.90
11107;DHT22;5607;48.302;14.294;2023-09-19T07:56:56;20.60;99.90
11107;DHT22;5607;48.302;14.294;2023-09-19T07:59:42;20.90;99.90
11107;DHT22;5607;48.302;14.294;2023-09-19T08:02:29;20.60;99.90
11107;DHT22;5607;48.302;14.294;2023-09-19T08:05:15;20.70;99.90
11107;DHT22;5607;48.302;14.294;2023-09-19T08:08:02;20.70;99.90
11107;DHT22;5607;48.302;14.294;2023-09-19T08:10:52;20.70;99.90
11107;DHT22;5607;48.302;14.294;2023-09-19T08:13:39;20.80;99.90
11107;DHT22;5607;48.302;14.294;2023-09-19T08:16:34;20.90;99.90
11107;DHT22;5607;48.302;14.294;2023-09-19T08:19:21;20.90;99.90
11107;DHT22;5607;48.302;14.294;2023-09-19T08:22:11;21.00;99.90
11107;DHT22;5607;48.302;14.294;2023-09-19T08:24:57;21.10;99.90
11107;DHT22;5607;48.302;14.294;2023-09-19T08:27:47;21.10;99.90
11107;DHT22;5607;48.302;14.294;2023-09-19T08:30:35;21.10;99.90
11107;DHT22;5607;48.302;14.294;2023-09-19T08:33:21;21.10;99.90
11107;DHT22;5607;48.302;14.294;2023-09-19T08:36:07;20.90;99.90
11107;DHT22;5607;48.302;14.294;2023-09-19T08:38:55;21.00;99.90
11107;DHT22;5607;48.302;14.294;2023-09-19T08:41:42;21.10;99.90
11107;DHT22;5607;48.302;14.294;2023-09-19T08:44:28;21.10;99.90
11107;DHT22;5607;48.302;14.294;2023-09-19T08:47:17;21.10;99.90
11107;DHT22;5607;48.302;14.294;2023-09-19T08:50:11;21.10;99.90
11107;DHT22;5607;48.302;14.294;2023-09-19T08:53:01;21.20;99.90
11107;DHT22;5607;48.302;14.294;2023-09-19T08:55:52;21.30;99.90
11107;DHT22;5607;48.302;14.294;2023-09-19T08:58:49;21.40;99.90
11107;DHT22;5607;48.302;14.294;2023-09-19T09:01:37;21.50;99.90
11107;DHT22;5607;48.302;14.294;2023-09-19T09:04:23;21.70;99.90
11107;DHT22;5607;48.302;14.294;2023-09-19T09:07:13;21.70;99.90
11107;DHT22;5607;48.302;14.294;2023-09-19T09:09:59;21.80;99.90
11107;DHT22;5607;48.302;14.294;2023-09-19T09:12:47;21.80;99.90
11107;DHT22;5607;48.302;14.294;2023-09-19T09:15:35;21.90;99.90
11107;DHT22;5607;48.302;14.294;2023-09-19T09:18:22;21.80;99.90
11107;DHT22;5607;48.302;14.294;2023-09-19T09:21:08;21.80;99.90
11107;DHT22;5607;48.302;14.294;2023-09-19T09:23:54;21.80;99.90
11107;DHT22;5607;48.302;14.294;2023-09-19T09:26:41;21.80;99.90
11107;DHT22;5607;48.302;14.294;2023-09-19T09:29:41;21.80;99.90
11107;DHT22;5607;48.302;14.294;2023-09-19T09:32:30;21.70;99.90
11107;DHT22;5607;48.302;14.294;2023-09-19T09:35:20;21.70;99.90
11107;DHT22;5607;48.302;14.294;2023-09-19T09:38:07;21.90;99.90
11107;DHT22;5607;48.302;14.294;2023-09-19T09:40:55;21.90;99.90
11107;DHT22;5607;48.302;14.294;2023-09-19T09:43:52;22.10;99.90
11107;DHT22;5607;48.302;14.294;2023-09-19T09:46:41;22.30;99.90
11107;DHT22;5607;48.302;14.294;2023-09-19T09:49:39;22.40;99.90
11107;DHT22;5607;48.302;14.294;2023-09-19T09:52:26;22.60;99.90
11107;DHT22;5607;48.302;14.294;2023-09-19T09:55:13;22.50;99.90
11107;DHT22;5607;48.302;14.294;2023-09-19T09:58:18;21.80;99.90
11107;DHT22;5607;48.302;14.294;2023-09-19T10:01:04;21.80;99.90
11107;DHT22;5607;48.302;14.294;2023-09-19T10:04:00;21.50;99.90
11107;DHT22;5607;48.302;14.294;2023-09-19T10:06:47;21.20;99.90
11107;DHT22;5607;48.302;14.294;2023-09-19T10:09:46;21.30;99.90
11107;DHT22;5607;48.302;14.294;2023-09-19T10:12:42;21.20;99.90
11107;DHT22;5607;48.302;14.294;2023-09-19T10:15:29;21.00;99.90
11107;DHT22;5607;48.302;14.294;2023-09-19T10:18:21;20.80;99.90
11107;DHT22;5607;48.302;14.294;2023-09-19T10:21:08;20.90;99.90
11107;DHT22;5607;48.302;14.294;2023-09-19T10:23:54;21.30;99.90
11107;DHT22;5607;48.302;14.294;2023-09-19T10:26:42;21.70;99.90
11107;DHT22;5607;48.302;14.294;2023-09-19T10:29:32;22.10;99.90
11107;DHT22;5607;48.302;14.294;2023-09-19T10:32:18;22.30;99.90
11107;DHT22;5607;48.302;14.294;2023-09-19T10:35:05;22.30;99.90
11107;DHT22;5607;48.302;14.294;2023-09-19T10:37:54;22.40;99.90
11107;DHT22;5607;48.302;14.294;2023-09-19T10:40:41;22.60;99.90
11107;DHT22;5607;48.302;14.294;2023-09-19T10:43:32;22.80;99.90
11107;DHT22;5607;48.302;14.294;2023-09-19T10:46:18;22.90;99.90
11107;DHT22;5607;48.302;14.294;2023-09-19T10:49:05;23.10;99.90
11107;DHT22;5607;48.302;14.294;2023-09-19T10:51:52;23.20;99.90
11107;DHT22;5607;48.302;14.294;2023-09-19T10:54:41;23.50;99.90
11107;DHT22;5607;48.302;14.294;2023-09-19T10:57:31;23.40;99.90
11107;DHT22;5607;48.302;14.294;2023-09-19T11:00:19;23.20;99.90
11107;DHT22;5607;48.302;14.294;2023-09-19T11:06:05;24.20;99.90
11107;DHT22;5607;48.302;14.294;2023-09-19T11:08:56;24.20;99.90
11107;DHT22;5607;48.302;14.294;2023-09-19T11:11:46;23.90;99.90
11107;DHT22;5607;48.302;14.294;2023-09-19T11:14:40;23.60;99.90
11107;DHT22;5607;48.302;14.294;2023-09-19T11:20:20;23.00;99.90
11107;DHT22;5607;48.302;14.294;2023-09-19T11:25:58;23.00;99.90
11107;DHT22;5607;48.302;14.294;2023-09-19T11:28:45;23.00;99.90
11107;DHT22;5607;48.302;14.294;2023-09-19T11:31:42;23.10;99.90
11107;DHT22;5607;48.302;14.294;2023-09-19T11:34:38;23.00;99.90
11107;DHT22;5607;48.302;14.294;2023-09-19T11:40:14;23.10;99.90
11107;DHT22;5607;48.302;14.294;2023-09-19T11:43:27;23.20;99.90
11107;DHT22;5607;48.302;14.294;2023-09-19T11:46:09;23.30;99.90
11107;DHT22;5607;48.302;14.294;2023-09-19T11:49:06;23.30;99.90
11107;DHT22;5607;48.302;14.294;2023-09-19T11:52:02;23.40;99.90
11107;DHT22;5607;48.302;14.294;2023-09-19T11:54:55;23.30;99.90
11107;DHT22;5607;48.302;14.294;2023-09-19T11:57:43;23.30;99.90
11107;DHT22;5607;48.302;14.294;2023-09-19T12:00:29;23.20;99.90
11107;DHT22;5607;48.302;14.294;2023-09-19T12:03:15;23.20;99.90
11107;DHT22;5607;48.302;14.294;2023-09-19T12:06:10;23.10;99.90
11107;DHT22;5607;48.302;14.294;2023-09-19T12:08:56;23.00;99.90
11107;DHT22;5607;48.302;14.294;2023-09-19T12:11:46;23.00;99.90
11107;DHT22;5607;48.302;14.294;2023-09-19T12:14:33;22.70;99.90
11107;DHT22;5607;48.302;14.294;2023-09-19T12:17:19;22.80;99.90
11107;DHT22;5607;48.302;14.294;2023-09-19T12:20:10;22.90;99.90
11107;DHT22;5607;48.302;14.294;2023-09-19T12:22:59;22.80;99.90
11107;DHT22;5607;48.302;14.294;2023-09-19T12:25:45;23.00;99.90
11107;DHT22;5607;48.302;14.294;2023-09-19T12:28:37;23.40;99.90
11107;DHT22;5607;48.302;14.294;2023-09-19T12:31:28;23.60;99.90
11107;DHT22;5607;48.302;14.294;2023-09-19T12:34:16;23.60;99.90
11107;DHT22;5607;48.302;14.294;2023-09-19T12:37:12;23.30;99.90
11107;DHT22;5607;48.302;14.294;2023-09-19T12:40:05;23.30;99.90
11107;DHT22;5607;48.302;14.294;2023-09-19T12:43:03;23.00;99.90
11107;DHT22;5607;48.302;14.294;2023-09-19T12:45:50;23.00;99.90
11107;DHT22;5607;48.302;14.294;2023-09-19T12:48:36;23.00;99.90
11107;DHT22;5607;48.302;14.294;2023-09-19T12:51:24;23.20;99.90
11107;DHT22;5607;48.302;14.294;2023-09-19T12:54:20;23.60;99.90
11107;DHT22;5607;48.302;14.294;2023-09-19T12:57:08;23.90;99.90
11107;DHT22;5607;48.302;14.294;2023-09-19T12:59:54;24.10;99.90
11107;DHT22;5607;48.302;14.294;2023-09-19T13:03:09;24.40;99.90
11107;DHT22;5607;48.302;14.294;2023-09-19T13:06:00;24.50;99.90
11107;DHT22;5607;48.302;14.294;2023-09-19T13:08:48;24.60;99.90
11107;DHT22;5607;48.302;14.294;2023-09-19T13:11:40;24.40;99.90
11107;DHT22;5607;48.302;14.294;2023-09-19T13:14:28;24.90;99.90
11107;DHT22;5607;48.302;14.294;2023-09-19T13:17:17;25.30;99.90
11107;DHT22;5607;48.302;14.294;2023-09-19T13:20:05;25.70;99.90
11107;DHT22;5607;48.302;14.294;2023-09-19T13:22:53;25.80;99.90
11107;DHT22;5607;48.302;14.294;2023-09-19T13:25:56;25.70;99.90
11107;DHT22;5607;48.302;14.294;2023-09-19T13:28:42;25.60;99.90
11107;DHT22;5607;48.302;14.294;2023-09-19T13:31:30;25.30;99.90
11107;DHT22;5607;48.302;14.294;2023-09-19T13:34:16;25.10;99.90
11107;DHT22;5607;48.302;14.294;2023-09-19T13:37:03;24.90;99.90
11107;DHT22;5607;48.302;14.294;2023-09-19T13:39:50;24.70;99.90
11107;DHT22;5607;48.302;14.294;2023-09-19T13:42:36;23.80;99.90
11107;DHT22;5607;48.302;14.294;2023-09-19T13:45:23;21.50;99.90
11107;DHT22;5607;48.302;14.294;2023-09-19T13:48:13;19.60;1.00
11107;DHT22;5607;48.302;14.294;2023-09-19T13:50:59;18.30;83.90
11107;DHT22;5607;48.302;14.294;2023-09-19T13:53:46;17.80;99.90
11107;DHT22;5607;48.302;14.294;2023-09-19T13:56:32;17.40;99.90
11107;DHT22;5607;48.302;14.294;2023-09-19T13:59:19;17.30;99.90
11107;DHT22;5607;48.302;14.294;2023-09-19T14:02:09;17.40;99.90
11107;DHT22;5607;48.302;14.294;2023-09-19T14:04:56;17.60;99.90
11107;DHT22;5607;48.302;14.294;2023-09-19T14:07:45;17.60;99.90
11107;DHT22;5607;48.302;14.294;2023-09-19T14:10:32;17.90;99.90
11107;DHT22;5607;48.302;14.294;2023-09-19T14:13:18;18.00;99.90
11107;DHT22;5607;48.302;14.294;2023-09-19T14:16:06;18.10;99.90
11107;DHT22;5607;48.302;14.294;2023-09-19T14:18:54;18.40;99.90
11107;DHT22;5607;48.302;14.294;2023-09-19T14:21:40;18.40;99.90
11107;DHT22;5607;48.302;14.294;2023-09-19T14:24:26;18.40;99.90
11107;DHT22;5607;48.302;14.294;2023-09-19T14:27:13;18.30;99.90
11107;DHT22;5607;48.302;14.294;2023-09-19T14:29:59;18.30;99.90
11107;DHT22;5607;48.302;14.294;2023-09-19T14:32:45;18.50;99.90
11107;DHT22;5607;48.302;14.294;2023-09-19T14:35:32;18.70;99.90
11107;DHT22;5607;48.302;14.294;2023-09-19T14:38:18;18.80;99.90
11107;DHT22;5607;48.302;14.294;2023-09-19T14:41:05;19.00;99.90
11107;DHT22;5607;48.302;14.294;2023-09-19T14:43:52;19.20;99.90
11107;DHT22;5607;48.302;14.294;2023-09-19T14:46:38;19.40;99.90
11107;DHT22;5607;48.302;14.294;2023-09-19T14:49:25;19.40;1.00
11107;DHT22;5607;48.302;14.294;2023-09-19T14:52:12;19.40;1.00
11107;DHT22;5607;48.302;14.294;2023-09-19T14:55:01;19.40;1.00
11107;DHT22;5607;48.302;14.294;2023-09-19T14:57:50;19.50;1.00
11107;DHT22;5607;48.302;14.294;2023-09-19T15:00:37;19.80;1.00
11107;DHT22;5607;48.302;14.294;2023-09-19T15:03:24;20.20;1.00
11107;DHT22;5607;48.302;14.294;2023-09-19T15:06:10;20.50;1.00
11107;DHT22;5607;48.302;14.294;2023-09-19T15:09:05;20.70;99.90
11107;DHT22;5607;48.302;14.294;2023-09-19T15:11:53;20.70;99.90
11107;DHT22;5607;48.302;14.294;2023-09-19T15:14:40;20.80;1.40
11107;DHT22;5607;48.302;14.294;2023-09-19T15:17:27;20.80;1.00
11107;DHT22;5607;48.302;14.294;2023-09-19T15:20:14;20.70;99.90
11107;DHT22;5607;48.302;14.294;2023-09-19T15:23:00;20.40;1.00
11107;DHT22;5607;48.302;14.294;2023-09-19T15:25:48;20.30;1.00
11107;DHT22;5607;48.302;14.294;2023-09-19T15:28:34;20.30;1.00
11107;DHT22;5607;48.302;14.294;2023-09-19T15:31:21;20.30;1.00
11107;DHT22;5607;48.302;14.294;2023-09-19T15:34:07;20.40;1.00
11107;DHT22;5607;48.302;14.294;2023-09-19T15:36:53;20.40;1.00
11107;DHT22;5607;48.302;14.294;2023-09-19T15:39:40;20.30;1.00
11107;DHT22;5607;48.302;14.294;2023-09-19T15:42:27;20.50;1.00
11107;DHT22;5607;48.302;14.294;2023-09-19T15:45:13;20.50;99.90
11107;DHT22;5607;48.302;14.294;2023-09-19T15:48:01;20.40;1.00
11107;DHT22;5607;48.302;14.294;2023-09-19T15:50:47;20.40;1.00
11107;DHT22;5607;48.302;14.294;2023-09-19T15:53:55;20.40;1.00
11107;DHT22;5607;48.302;14.294;2023-09-19T15:56:41;20.40;1.00
11107;DHT22;5607;48.302;14.294;2023-09-19T15:59:28;20.50;1.00
11107;DHT22;5607;48.302;14.294;2023-09-19T16:02:16;20.50;99.90
11107;DHT22;5607;48.302;14.294;2023-09-19T16:05:03;20.40;1.00
11107;DHT22;5607;48.302;14.294;2023-09-19T16:07:51;20.50;1.00
11107;DHT22;5607;48.302;14.294;2023-09-19T16:10:37;20.50;99.90
11107;DHT22;5607;48.302;14.294;2023-09-19T16:13:25;20.50;1.00
11107;DHT22;5607;48.302;14.294;2023-09-19T16:16:12;20.40;99.90
11107;DHT22;5607;48.302;14.294;2023-09-19T16:19:01;20.10;1.00
11107;DHT22;5607;48.302;14.294;2023-09-19T16:21:49;20.00;1.00
11107;DHT22;5607;48.302;14.294;2023-09-19T16:24:36;19.90;1.00
11107;DHT22;5607;48.302;14.294;2023-09-19T16:27:22;20.00;1.00
11107;DHT22;5607;48.302;14.294;2023-09-19T16:30:09;20.00;1.00
11107;DHT22;5607;48.302;14.294;2023-09-19T16:32:55;19.90;1.00
11107;DHT22;5607;48.302;14.294;2023-09-19T16:35:42;20.00;1.00
11107;DHT22;5607;48.302;14.294;2023-09-19T16:38:28;20.10;1.00
11107;DHT22;5607;48.302;14.294;2023-09-19T16:41:16;20.10;1.00
11107;DHT22;5607;48.302;14.294;2023-09-19T16:44:02;20.10;1.00
11107;DHT22;5607;48.302;14.294;2023-09-19T16:46:50;20.10;1.00
11107;DHT22;5607;48.302;14.294;2023-09-19T16:49:36;20.00;1.00
11107;DHT22;5607;48.302;14.294;2023-09-19T16:52:22;20.00;1.00
11107;DHT22;5607;48.302;14.294;2023-09-19T16:55:08;19.90;1.00
11107;DHT22;5607;48.302;14.294;2023-09-19T16:57:55;19.70;1.00
11107;DHT22;5607;48.302;14.294;2023-09-19T17:00:45;19.60;1.00
11107;DHT22;5607;48.302;14.294;2023-09-19T17:03:33;19.60;1.00
11107;DHT22;5607;48.302;14.294;2023-09-19T17:06:21;19.60;1.00
11107;DHT22;5607;48.302;14.294;2023-09-19T17:09:10;19.50;1.00
11107;DHT22;5607;48.302;14.294;2023-09-19T17:11:56;19.50;1.00
11107;DHT22;5607;48.302;14.294;2023-09-19T17:14:43;19.50;1.00
11107;DHT22;5607;48.302;14.294;2023-09-19T17:17:30;19.40;1.00
11107;DHT22;5607;48.302;14.294;2023-09-19T17:20:17;19.40;1.00
11107;DHT22;5607;48.302;14.294;2023-09-19T17:23:03;19.40;1.00
11107;DHT22;5607;48.302;14.294;2023-09-19T17:25:49;19.40;1.00
11107;DHT22;5607;48.302;14.294;2023-09-19T17:28:43;19.30;1.00
11107;DHT22;5607;48.302;14.294;2023-09-19T17:31:29;19.30;1.00
11107;DHT22;5607;48.302;14.294;2023-09-19T17:34:15;19.30;1.00
11107;DHT22;5607;48.302;14.294;2023-09-19T17:37:02;19.30;1.00
11107;DHT22;5607;48.302;14.294;2023-09-19T17:39:48;19.20;1.00
11107;DHT22;5607;48.302;14.294;2023-09-19T17:42:34;19.10;1.00
11107;DHT22;5607;48.302;14.294;2023-09-19T17:45:21;19.10;1.00
11107;DHT22;5607;48.302;14.294;2023-09-19T17:48:08;18.90;1.00
11107;DHT22;5607;48.302;14.294;2023-09-19T17:51:01;18.80;1.00
11107;DHT22;5607;48.302;14.294;2023-09-19T17:53:48;18.60;1.00
11107;DHT22;5607;48.302;14.294;2023-09-19T17:56:34;18.60;8.10
11107;DHT22;5607;48.302;14.294;2023-09-19T17:59:21;18.40;19.80
11107;DHT22;5607;48.302;14.294;2023-09-19T18:02:08;18.30;28.00
11107;DHT22;5607;48.302;14.294;2023-09-19T18:04:55;18.30;32.00
11107;DHT22;5607;48.302;14.294;2023-09-19T18:07:42;18.20;28.50
11107;DHT22;5607;48.302;14.294;2023-09-19T18:10:30;18.20;48.70
11107;DHT22;5607;48.302;14.294;2023-09-19T18:13:16;18.10;57.10
11107;DHT22;5607;48.302;14.294;2023-09-19T18:16:05;18.00;70.50
11107;DHT22;5607;48.302;14.294;2023-09-19T18:18:51;18.00;72.50
11107;DHT22;5607;48.302;14.294;2023-09-19T18:21:39;17.90;87.80
11107;DHT22;5607;48.302;14.294;2023-09-19T18:24:27;17.90;98.40